sensor_id;sensor_type;location;lat;lon;timestamp;temperature;humidity
22006;DHT22;11167;46.988;15.470;2023-04-15T00:00:48;9.40;71.00
22006;DHT22;11167;46.988;15.470;2023-04-15T00:02:51;9.40;71.10
22006;DHT22;11167;46.988;15.470;2023-04-15T00:04:52;9.40;71.20
22006;DHT22;11167;46.988;15.470;2023-04-15T00:06:53;9.40;71.10
22006;DHT22;11167;46.988;15.470;2023-04-15T00:08:55;9.40;72.00
22006;DHT22;11167;46.988;15.470;2023-04-15T00:10:57;9.40;71.20
22006;DHT22;11167;46.988;15.470;2023-04-15T00:13:00;9.40;71.20
22006;DHT22;11167;46.988;15.470;2023-04-15T00:15:03;9.40;71.20
22006;DHT22;11167;46.988;15.470;2023-04-15T00:17:04;9.40;71.20
22006;DHT22;11167;46.988;15.470;2023-04-15T00:19:06;9.40;71.20
22006;DHT22;11167;46.988;15.470;2023-04-15T00:21:07;9.40;71.20
22006;DHT22;11167;46.988;15.470;2023-04-15T00:23:09;9.40;71.20
22006;DHT22;11167;46.988;15.470;2023-04-15T00:25:10;9.40;71.20
22006;DHT22;11167;46.988;15.470;2023-04-15T00:27:11;9.40;71.20
22006;DHT22;11167;46.988;15.470;2023-04-15T00:29:12;9.40;71.20
22006;DHT22;11167;46.988;15.470;2023-04-15T00:31:14;9.40;71.20
22006;DHT22;11167;46.988;15.470;2023-04-15T00:33:15;9.40;71.20
22006;DHT22;11167;46.988;15.470;2023-04-15T00:35:17;9.40;71.30
22006;DHT22;11167;46.988;15.470;2023-04-15T00:37:18;9.40;71.20
22006;DHT22;11167;46.988;15.470;2023-04-15T00:39:19;9.40;71.20
22006;DHT22;11167;46.988;15.470;2023-04-15T00:41:21;9.40;71.30
22006;DHT22;11167;46.988;15.470;2023-04-15T00:43:22;9.40;71.20
22006;DHT22;11167;46.988;15.470;2023-04-15T00:45:24;9.40;71.30
22006;DHT22;11167;46.988;15.470;2023-04-15T00:47:28;9.40;71.20
22006;DHT22;11167;46.988;15.470;2023-04-15T00:49:30;9.30;71.20
22006;DHT22;11167;46.988;15.470;2023-04-15T00:51:33;9.40;71.30
22006;DHT22;11167;46.988;15.470;2023-04-15T00:53:36;9.40;71.30
22006;DHT22;11167;46.988;15.470;2023-04-15T00:55:37;9.40;71.30
22006;DHT22;11167;46.988;15.470;2023-04-15T00:57:39;9.30;71.20
22006;DHT22;11167;46.988;15.470;2023-04-15T00:59:41;9.30;71.20
22006;DHT22;11167;46.988;15.470;2023-04-15T01:01:43;9.30;71.20
22006;DHT22;11167;46.988;15.470;2023-04-15T01:03:44;9.40;71.30
22006;DHT22;11167;46.988;15.470;2023-04-15T01:05:46;9.40;71.30
22006;DHT22;11167;46.988;15.470;2023-04-15T01:07:47;9.30;71.40
22006;DHT22;11167;46.988;15.470;2023-04-15T01:09:48;9.30;71.30
22006;DHT22;11167;46.988;15.470;2023-04-15T01:11:50;9.40;71.30
22006;DHT22;11167;46.988;15.470;2023-04-15T01:13:51;9.30;71.30
22006;DHT22;11167;46.988;15.470;2023-04-15T01:15:53;9.40;71.40
22006;DHT22;11167;46.988;15.470;2023-04-15T01:17:58;9.30;71.30
22006;DHT22;11167;46.988;15.470;2023-04-15T01:19:59;9.30;71.30
22006;DHT22;11167;46.988;15.470;2023-04-15T01:22:01;9.30;71.40
22006;DHT22;11167;46.988;15.470;2023-04-15T01:24:06;9.30;71.30
22006;DHT22;11167;46.988;15.470;2023-04-15T01:26:08;9.30;71.30
22006;DHT22;11167;46.988;15.470;2023-04-15T01:28:09;9.30;71.30
22006;DHT22;11167;46.988;15.470;2023-04-15T01:30:10;9.30;71.40
22006;DHT22;11167;46.988;15.470;2023-04-15T01:32:12;9.30;71.40
22006;DHT22;11167;46.988;15.470;2023-04-15T01:34:13;9.30;71.40
22006;DHT22;11167;46.988;15.470;2023-04-15T01:36:14;9.30;71.30
22006;DHT22;11167;46.988;15.470;2023-04-15T01:38:15;9.30;71.40
22006;DHT22;11167;46.988;15.470;2023-04-15T01:40:17;9.30;71.40
22006;DHT22;11167;46.988;15.470;2023-04-15T01:42:18;9.30;71.40
22006;DHT22;11167;46.988;15.470;2023-04-15T01:44:20;9.30;71.40
22006;DHT22;11167;46.988;15.470;2023-04-15T01:46:22;9.30;71.50
22006;DHT22;11167;46.988;15.470;2023-04-15T01:48:23;9.30;71.40
22006;DHT22;11167;46.988;15.470;2023-04-15T01:50:25;9.30;71.40
22006;DHT22;11167;46.988;15.470;2023-04-15T01:52:27;9.30;71.50
22006;DHT22;11167;46.988;15.470;2023-04-15T01:54:28;9.30;72.20
22006;DHT22;11167;46.988;15.470;2023-04-15T01:56:29;9.30;71.40
22006;DHT22;11167;46.988;15.470;2023-04-15T01:58:30;9.30;70.80
22006;DHT22;11167;46.988;15.470;2023-04-15T02:00:31;9.30;71.40
22006;DHT22;11167;46.988;15.470;2023-04-15T02:02:32;9.30;71.40
22006;DHT22;11167;46.988;15.470;2023-04-15T02:04:34;9.30;71.40
22006;DHT22;11167;46.988;15.470;2023-04-15T02:06:35;9.30;71.40
22006;DHT22;11167;46.988;15.470;2023-04-15T02:08:36;9.30;71.40
22006;DHT22;11167;46.988;15.470;2023-04-15T02:10:37;9.30;71.50
22006;DHT22;11167;46.988;15.470;2023-04-15T02:12:39;9.30;71.50
22006;DHT22;11167;46.988;15.470;2023-04-15T02:14:41;9.30;71.50
22006;DHT22;11167;46.988;15.470;2023-04-15T02:16:42;9.30;71.50
22006;DHT22;11167;46.988;15.470;2023-04-15T02:18:45;9.30;71.50
22006;DHT22;11167;46.988;15.470;2023-04-15T02:20:46;9.20;71.40
22006;DHT22;11167;46.988;15.470;2023-04-15T02:22:48;9.20;71.40
22006;DHT22;11167;46.988;15.470;2023-04-15T02:24:49;9.20;71.40
22006;DHT22;11167;46.988;15.470;2023-04-15T02:26:50;9.20;71.40
22006;DHT22;11167;46.988;15.470;2023-04-15T02:28:51;9.30;71.50
22006;DHT22;11167;46.988;15.470;2023-04-15T02:30:53;9.20;71.50
22006;DHT22;11167;46.988;15.470;2023-04-15T02:32:56;9.20;71.50
22006;DHT22;11167;46.988;15.470;2023-04-15T02:35:05;9.20;71.50
22006;DHT22;11167;46.988;15.470;2023-04-15T02:37:13;9.20;71.00
22006;DHT22;11167;46.988;15.470;2023-04-15T02:39:12;9.20;71.60
22006;DHT22;11167;46.988;15.470;2023-04-15T02:41:15;9.20;71.50
22006;DHT22;11167;46.988;15.470;2023-04-15T02:43:17;9.20;71.60
22006;DHT22;11167;46.988;15.470;2023-04-15T02:45:18;9.20;71.60
22006;DHT22;11167;46.988;15.470;2023-04-15T02:47:41;9.20;71.60
22006;DHT22;11167;46.988;15.470;2023-04-15T02:49:42;9.20;71.60
22006;DHT22;11167;46.988;15.470;2023-04-15T02:51:43;9.20;71.60
22006;DHT22;11167;46.988;15.470;2023-04-15T02:53:47;9.20;71.60
22006;DHT22;11167;46.988;15.470;2023-04-15T02:55:49;9.20;71.60
22006;DHT22;11167;46.988;15.470;2023-04-15T02:57:50;9.20;71.60
22006;DHT22;11167;46.988;15.470;2023-04-15T02:59:51;9.20;71.60
22006;DHT22;11167;46.988;15.470;2023-04-15T03:02:12;9.20;71.60
22006;DHT22;11167;46.988;15.470;2023-04-15T03:04:13;9.10;71.50
22006;DHT22;11167;46.988;15.470;2023-04-15T03:06:14;9.20;71.60
22006;DHT22;11167;46.988;15.470;2023-04-15T03:08:15;9.20;71.70
22006;DHT22;11167;46.988;15.470;2023-04-15T03:10:16;9.20;71.60
22006;DHT22;11167;46.988;15.470;2023-04-15T03:12:18;9.20;71.60
22006;DHT22;11167;46.988;15.470;2023-04-15T03:14:19;9.20;71.70
22006;DHT22;11167;46.988;15.470;2023-04-15T03:16:20;9.20;71.60
22006;DHT22;11167;46.988;15.470;2023-04-15T03:18:21;9.20;71.60
22006;DHT22;11167;46.988;15.470;2023-04-15T03:20:23;9.20;71.60
22006;DHT22;11167;46.988;15.470;2023-04-15T03:22:24;9.20;71.60
22006;DHT22;11167;46.988;15.470;2023-04-15T03:24:26;9.20;71.70
22006;DHT22;11167;46.988;15.470;2023-04-15T03:26:30;9.10;71.60
22006;DHT22;11167;46.988;15.470;2023-04-15T03:28:31;9.20;71.60
22006;DHT22;11167;46.988;15.470;2023-04-15T03:30:32;9.10;71.60
22006;DHT22;11167;46.988;15.470;2023-04-15T03:32:33;9.10;71.60
22006;DHT22;11167;46.988;15.470;2023-04-15T03:34:34;9.20;71.60
22006;DHT22;11167;46.988;15.470;2023-04-15T03:36:35;9.20;71.70
22006;DHT22;11167;46.988;15.470;2023-04-15T03:38:36;9.20;71.70
22006;DHT22;11167;46.988;15.470;2023-04-15T03:40:39;9.10;71.60
22006;DHT22;11167;46.988;15.470;2023-04-15T03:42:41;9.10;71.60
22006;DHT22;11167;46.988;15.470;2023-04-15T03:44:42;9.10;71.70
22006;DHT22;11167;46.988;15.470;2023-04-15T03:46:43;9.10;71.70
22006;DHT22;11167;46.988;15.470;2023-04-15T03:48:46;9.20;71.70
22006;DHT22;11167;46.988;15.470;2023-04-15T03:50:47;9.10;71.60
22006;DHT22;11167;46.988;15.470;2023-04-15T03:52:48;9.20;71.70
22006;DHT22;11167;46.988;15.470;2023-04-15T03:54:50;9.10;71.60
22006;DHT22;11167;46.988;15.470;2023-04-15T03:56:51;9.10;71.60
22006;DHT22;11167;46.988;15.470;2023-04-15T03:58:52;9.10;71.60
22006;DHT22;11167;46.988;15.470;2023-04-15T04:00:53;9.10;71.60
22006;DHT22;11167;46.988;15.470;2023-04-15T04:02:55;9.10;71.60
22006;DHT22;11167;46.988;15.470;2023-04-15T04:04:56;9.10;71.60
22006;DHT22;11167;46.988;15.470;2023-04-15T04:06:57;9.10;71.60
22006;DHT22;11167;46.988;15.470;2023-04-15T04:08:58;9.10;71.60
22006;DHT22;11167;46.988;15.470;2023-04-15T04:10:59;9.10;71.70
22006;DHT22;11167;46.988;15.470;2023-04-15T04:13:00;9.10;71.60
22006;DHT22;11167;46.988;15.470;2023-04-15T04:15:01;9.10;71.60
22006;DHT22;11167;46.988;15.470;2023-04-15T04:17:02;9.10;71.60
22006;DHT22;11167;46.988;15.470;2023-04-15T04:19:03;9.10;71.60
22006;DHT22;11167;46.988;15.470;2023-04-15T04:21:04;9.10;71.50
22006;DHT22;11167;46.988;15.470;2023-04-15T04:23:06;9.10;71.50
22006;DHT22;11167;46.988;15.470;2023-04-15T04:25:08;9.10;71.60
22006;DHT22;11167;46.988;15.470;2023-04-15T04:27:12;9.10;72.30
22006;DHT22;11167;46.988;15.470;2023-04-15T04:29:13;9.10;71.60
22006;DHT22;11167;46.988;15.470;2023-04-15T04:31:14;9.10;71.40
22006;DHT22;11167;46.988;15.470;2023-04-15T04:33:15;9.10;71.50
22006;DHT22;11167;46.988;15.470;2023-04-15T04:35:16;9.10;71.50
22006;DHT22;11167;46.988;15.470;2023-04-15T04:37:17;9.10;71.50
22006;DHT22;11167;46.988;15.470;2023-04-15T04:39:18;9.10;71.50
22006;DHT22;11167;46.988;15.470;2023-04-15T04:41:19;9.10;71.40
22006;DHT22;11167;46.988;15.470;2023-04-15T04:43:20;9.00;71.40
22006;DHT22;11167;46.988;15.470;2023-04-15T04:45:22;9.10;71.50
22006;DHT22;11167;46.988;15.470;2023-04-15T04:47:23;9.00;71.50
22006;DHT22;11167;46.988;15.470;2023-04-15T04:49:24;9.00;71.50
22006;DHT22;11167;46.988;15.470;2023-04-15T04:51:25;9.00;71.50
22006;DHT22;11167;46.988;15.470;2023-04-15T04:53:27;9.00;71.50
22006;DHT22;11167;46.988;15.470;2023-04-15T04:55:29;9.00;71.50
22006;DHT22;11167;46.988;15.470;2023-04-15T04:57:32;9.00;71.60
22006;DHT22;11167;46.988;15.470;2023-04-15T04:59:35;9.10;71.60
22006;DHT22;11167;46.988;15.470;2023-04-15T05:01:37;9.00;71.60
22006;DHT22;11167;46.988;15.470;2023-04-15T05:03:38;9.00;71.60
22006;DHT22;11167;46.988;15.470;2023-04-15T05:05:40;9.10;71.60
22006;DHT22;11167;46.988;15.470;2023-04-15T05:07:42;9.10;71.60
22006;DHT22;11167;46.988;15.470;2023-04-15T05:09:43;9.00;71.50
22006;DHT22;11167;46.988;15.470;2023-04-15T05:11:45;9.10;71.70
22006;DHT22;11167;46.988;15.470;2023-04-15T05:13:46;9.00;71.60
22006;DHT22;11167;46.988;15.470;2023-04-15T05:15:47;9.00;71.70
22006;DHT22;11167;46.988;15.470;2023-04-15T05:17:48;9.00;71.60
22006;DHT22;11167;46.988;15.470;2023-04-15T05:19:49;9.00;71.60
22006;DHT22;11167;46.988;15.470;2023-04-15T05:21:51;9.00;71.70
22006;DHT22;11167;46.988;15.470;2023-04-15T05:23:52;9.00;71.70
22006;DHT22;11167;46.988;15.470;2023-04-15T05:25:53;9.00;71.70
22006;DHT22;11167;46.988;15.470;2023-04-15T05:27:54;9.00;71.60
22006;DHT22;11167;46.988;15.470;2023-04-15T05:29:55;9.00;71.40
22006;DHT22;11167;46.988;15.470;2023-04-15T05:31:56;9.00;71.40
22006;DHT22;11167;46.988;15.470;2023-04-15T05:33:57;9.00;71.40
22006;DHT22;11167;46.988;15.470;2023-04-15T05:35:58;9.00;71.40
22006;DHT22;11167;46.988;15.470;2023-04-15T05:38:00;9.00;71.50
22006;DHT22;11167;46.988;15.470;2023-04-15T05:40:01;9.00;71.50
22006;DHT22;11167;46.988;15.470;2023-04-15T05:42:02;9.00;71.60
22006;DHT22;11167;46.988;15.470;2023-04-15T05:44:05;9.00;71.60
22006;DHT22;11167;46.988;15.470;2023-04-15T05:46:07;9.00;71.60
22006;DHT22;11167;46.988;15.470;2023-04-15T05:48:08;9.00;71.60
22006;DHT22;11167;46.988;15.470;2023-04-15T05:50:09;9.00;71.60
22006;DHT22;11167;46.988;15.470;2023-04-15T05:52:11;9.00;71.70
22006;DHT22;11167;46.988;15.470;2023-04-15T05:54:12;9.00;71.60
22006;DHT22;11167;46.988;15.470;2023-04-15T05:56:13;9.00;71.70
22006;DHT22;11167;46.988;15.470;2023-04-15T05:58:15;9.00;71.70
22006;DHT22;11167;46.988;15.470;2023-04-15T06:00:16;9.00;71.70
22006;DHT22;11167;46.988;15.470;2023-04-15T06:02:17;9.00;71.70
22006;DHT22;11167;46.988;15.470;2023-04-15T06:04:18;9.00;71.70
22006;DHT22;11167;46.988;15.470;2023-04-15T06:06:20;9.00;71.70
22006;DHT22;11167;46.988;15.470;2023-04-15T06:08:21;9.00;71.60
22006;DHT22;11167;46.988;15.470;2023-04-15T06:10:22;9.00;71.70
22006;DHT22;11167;46.988;15.470;2023-04-15T06:12:23;9.00;71.70
22006;DHT22;11167;46.988;15.470;2023-04-15T06:14:24;9.00;71.70
22006;DHT22;11167;46.988;15.470;2023-04-15T06:16:25;9.10;71.80
22006;DHT22;11167;46.988;15.470;2023-04-15T06:18:27;9.00;71.70
22006;DHT22;11167;46.988;15.470;2023-04-15T06:20:28;9.00;71.70
22006;DHT22;11167;46.988;15.470;2023-04-15T06:22:30;9.00;71.70
22006;DHT22;11167;46.988;15.470;2023-04-15T06:24:31;9.00;71.70
22006;DHT22;11167;46.988;15.470;2023-04-15T06:26:32;9.10;71.70
22006;DHT22;11167;46.988;15.470;2023-04-15T06:28:33;9.00;71.70
22006;DHT22;11167;46.988;15.470;2023-04-15T06:30:35;9.00;71.70
22006;DHT22;11167;46.988;15.470;2023-04-15T06:32:36;9.00;71.70
22006;DHT22;11167;46.988;15.470;2023-04-15T06:34:37;9.00;71.60
22006;DHT22;11167;46.988;15.470;2023-04-15T06:36:38;9.00;71.60
22006;DHT22;11167;46.988;15.470;2023-04-15T06:38:39;9.10;72.50
22006;DHT22;11167;46.988;15.470;2023-04-15T06:40:41;9.00;71.70
22006;DHT22;11167;46.988;15.470;2023-04-15T06:42:42;9.00;71.60
22006;DHT22;11167;46.988;15.470;2023-04-15T06:44:44;9.00;71.60
22006;DHT22;11167;46.988;15.470;2023-04-15T06:46:46;9.10;71.70
22006;DHT22;11167;46.988;15.470;2023-04-15T06:48:47;9.10;71.70
22006;DHT22;11167;46.988;15.470;2023-04-15T06:50:48;9.10;71.80
22006;DHT22;11167;46.988;15.470;2023-04-15T06:52:50;9.10;71.70
22006;DHT22;11167;46.988;15.470;2023-04-15T06:54:51;9.10;71.70
22006;DHT22;11167;46.988;15.470;2023-04-15T06:56:52;9.10;71.70
22006;DHT22;11167;46.988;15.470;2023-04-15T06:58:53;9.10;71.70
22006;DHT22;11167;46.988;15.470;2023-04-15T07:00:54;9.10;71.80
22006;DHT22;11167;46.988;15.470;2023-04-15T07:02:55;9.10;71.80
22006;DHT22;11167;46.988;15.470;2023-04-15T07:04:56;9.10;71.70
22006;DHT22;11167;46.988;15.470;2023-04-15T07:06:57;9.10;71.70
22006;DHT22;11167;46.988;15.470;2023-04-15T07:09:00;9.10;71.70
22006;DHT22;11167;46.988;15.470;2023-04-15T07:11:02;9.10;71.90
22006;DHT22;11167;46.988;15.470;2023-04-15T07:13:04;9.10;71.70
22006;DHT22;11167;46.988;15.470;2023-04-15T07:15:07;9.10;71.20
22006;DHT22;11167;46.988;15.470;2023-04-15T07:17:08;9.10;71.70
22006;DHT22;11167;46.988;15.470;2023-04-15T07:19:09;9.10;71.70
22006;DHT22;11167;46.988;15.470;2023-04-15T07:21:10;9.10;71.70
22006;DHT22;11167;46.988;15.470;2023-04-15T07:23:11;9.10;71.70
22006;DHT22;11167;46.988;15.470;2023-04-15T07:25:12;9.10;71.70
22006;DHT22;11167;46.988;15.470;2023-04-15T07:27:13;9.10;71.70
22006;DHT22;11167;46.988;15.470;2023-04-15T07:29:15;9.10;71.70
22006;DHT22;11167;46.988;15.470;2023-04-15T07:31:16;9.10;71.80
22006;DHT22;11167;46.988;15.470;2023-04-15T07:33:17;9.10;72.10
22006;DHT22;11167;46.988;15.470;2023-04-15T07:35:19;9.20;71.80
22006;DHT22;11167;46.988;15.470;2023-04-15T07:37:21;9.10;71.70
22006;DHT22;11167;46.988;15.470;2023-04-15T07:39:22;9.20;71.80
22006;DHT22;11167;46.988;15.470;2023-04-15T07:41:23;9.20;71.80
22006;DHT22;11167;46.988;15.470;2023-04-15T07:43:45;9.20;71.80
22006;DHT22;11167;46.988;15.470;2023-04-15T07:45:48;9.10;71.70
22006;DHT22;11167;46.988;15.470;2023-04-15T07:47:49;9.20;71.80
22006;DHT22;11167;46.988;15.470;2023-04-15T07:49:59;9.20;71.80
22006;DHT22;11167;46.988;15.470;2023-04-15T07:52:00;9.10;71.70
22006;DHT22;11167;46.988;15.470;2023-04-15T07:54:01;9.20;71.80
22006;DHT22;11167;46.988;15.470;2023-04-15T07:56:04;9.20;71.80
22006;DHT22;11167;46.988;15.470;2023-04-15T07:58:05;9.20;71.80
22006;DHT22;11167;46.988;15.470;2023-04-15T08:00:07;9.20;71.80
22006;DHT22;11167;46.988;15.470;2023-04-15T08:02:10;9.20;71.80
22006;DHT22;11167;46.988;15.470;2023-04-15T08:04:11;9.20;71.80
22006;DHT22;11167;46.988;15.470;2023-04-15T08:06:12;9.30;71.90
22006;DHT22;11167;46.988;15.470;2023-04-15T08:08:13;9.20;71.80
22006;DHT22;11167;46.988;15.470;2023-04-15T08:10:16;9.20;71.80
22006;DHT22;11167;46.988;15.470;2023-04-15T08:12:17;9.20;71.80
22006;DHT22;11167;46.988;15.470;2023-04-15T08:14:18;9.20;71.80
22006;DHT22;11167;46.988;15.470;2023-04-15T08:16:23;9.30;71.90
22006;DHT22;11167;46.988;15.470;2023-04-15T08:18:24;9.30;71.90
22006;DHT22;11167;46.988;15.470;2023-04-15T08:20:25;9.30;72.30
22006;DHT22;11167;46.988;15.470;2023-04-15T08:22:27;9.30;71.90
22006;DHT22;11167;46.988;15.470;2023-04-15T08:24:30;9.30;71.90
22006;DHT22;11167;46.988;15.470;2023-04-15T08:26:31;9.30;71.90
22006;DHT22;11167;46.988;15.470;2023-04-15T08:28:32;9.30;71.90
22006;DHT22;11167;46.988;15.470;2023-04-15T08:30:33;9.30;71.90
22006;DHT22;11167;46.988;15.470;2023-04-15T08:32:35;9.30;71.90
22006;DHT22;11167;46.988;15.470;2023-04-15T08:34:37;9.30;71.90
22006;DHT22;11167;46.988;15.470;2023-04-15T08:36:39;9.30;71.90
22006;DHT22;11167;46.988;15.470;2023-04-15T08:38:40;9.30;71.90
22006;DHT22;11167;46.988;15.470;2023-04-15T08:40:43;9.30;71.90
22006;DHT22;11167;46.988;15.470;2023-04-15T08:42:47;9.30;71.90
22006;DHT22;11167;46.988;15.470;2023-04-15T08:44:50;9.40;72.00
22006;DHT22;11167;46.988;15.470;2023-04-15T08:46:52;9.40;72.00
22006;DHT22;11167;46.988;15.470;2023-04-15T08:48:56;9.40;72.00
22006;DHT22;11167;46.988;15.470;2023-04-15T08:50:58;9.40;72.00
22006;DHT22;11167;46.988;15.470;2023-04-15T08:53:01;9.40;72.10
22006;DHT22;11167;46.988;15.470;2023-04-15T08:55:03;9.40;72.00
22006;DHT22;11167;46.988;15.470;2023-04-15T08:57:05;9.40;72.00
22006;DHT22;11167;46.988;15.470;2023-04-15T08:59:08;9.40;72.00
22006;DHT22;11167;46.988;15.470;2023-04-15T09:01:12;9.40;72.00
22006;DHT22;11167;46.988;15.470;2023-04-15T09:03:13;9.40;72.00
22006;DHT22;11167;46.988;15.470;2023-04-15T09:05:16;9.40;72.00
22006;DHT22;11167;46.988;15.470;2023-04-15T09:07:17;9.40;71.90
22006;DHT22;11167;46.988;15.470;2023-04-15T09:09:18;9.50;72.00
22006;DHT22;11167;46.988;15.470;2023-04-15T09:11:21;9.50;72.00
22006;DHT22;11167;46.988;15.470;2023-04-15T09:13:22;9.50;72.00
22006;DHT22;11167;46.988;15.470;2023-04-15T09:15:27;9.50;72.00
22006;DHT22;11167;46.988;15.470;2023-04-15T09:17:32;9.50;72.10
22006;DHT22;11167;46.988;15.470;2023-04-15T09:19:33;9.50;72.00
22006;DHT22;11167;46.988;15.470;2023-04-15T09:21:34;9.50;72.30
22006;DHT22;11167;46.988;15.470;2023-04-15T09:23:36;9.50;72.00
22006;DHT22;11167;46.988;15.470;2023-04-15T09:25:39;9.50;72.10
22006;DHT22;11167;46.988;15.470;2023-04-15T09:27:49;9.50;72.10
22006;DHT22;11167;46.988;15.470;2023-04-15T09:29:52;9.50;72.10
22006;DHT22;11167;46.988;15.470;2023-04-15T09:31:54;9.50;72.10
22006;DHT22;11167;46.988;15.470;2023-04-15T09:33:56;9.60;72.10
22006;DHT22;11167;46.988;15.470;2023-04-15T09:36:03;9.60;72.20
22006;DHT22;11167;46.988;15.470;2023-04-15T09:38:06;9.60;72.10
22006;DHT22;11167;46.988;15.470;2023-04-15T09:40:09;9.60;72.10
22006;DHT22;11167;46.988;15.470;2023-04-15T09:42:10;9.60;72.10
22006;DHT22;11167;46.988;15.470;2023-04-15T09:44:25;9.60;72.00
22006;DHT22;11167;46.988;15.470;2023-04-15T09:46:44;9.60;72.10
22006;DHT22;11167;46.988;15.470;2023-04-15T09:48:46;9.60;72.60
22006;DHT22;11167;46.988;15.470;2023-04-15T09:50:48;9.60;72.20
22006;DHT22;11167;46.988;15.470;2023-04-15T09:52:49;9.60;72.20
22006;DHT22;11167;46.988;15.470;2023-04-15T09:54:53;9.60;72.20
22006;DHT22;11167;46.988;15.470;2023-04-15T09:57:03;9.70;72.20
22006;DHT22;11167;46.988;15.470;2023-04-15T09:59:03;9.70;72.20
22006;DHT22;11167;46.988;15.470;2023-04-15T10:01:05;9.70;72.40
22006;DHT22;11167;46.988;15.470;2023-04-15T10:03:07;9.70;72.20
22006;DHT22;11167;46.988;15.470;2023-04-15T10:05:10;9.70;72.30
22006;DHT22;11167;46.988;15.470;2023-04-15T10:07:14;9.70;72.40
22006;DHT22;11167;46.988;15.470;2023-04-15T10:09:15;9.70;72.40
22006;DHT22;11167;46.988;15.470;2023-04-15T10:11:18;9.70;72.30
22006;DHT22;11167;46.988;15.470;2023-04-15T10:13:23;9.80;72.40
22006;DHT22;11167;46.988;15.470;2023-04-15T10:15:26;9.80;72.40
22006;DHT22;11167;46.988;15.470;2023-04-15T10:17:29;9.80;72.40
22006;DHT22;11167;46.988;15.470;2023-04-15T10:19:36;9.80;72.40
22006;DHT22;11167;46.988;15.470;2023-04-15T10:21:38;9.80;72.40
22006;DHT22;11167;46.988;15.470;2023-04-15T10:23:40;9.80;72.40
22006;DHT22;11167;46.988;15.470;2023-04-15T10:25:41;9.90;72.40
22006;DHT22;11167;46.988;15.470;2023-04-15T10:27:42;9.90;72.40
22006;DHT22;11167;46.988;15.470;2023-04-15T10:29:44;9.90;72.40
22006;DHT22;11167;46.988;15.470;2023-04-15T10:31:47;9.90;72.50
22006;DHT22;11167;46.988;15.470;2023-04-15T10:33:48;9.90;72.50
22006;DHT22;11167;46.988;15.470;2023-04-15T10:35:51;9.90;72.50
22006;DHT22;11167;46.988;15.470;2023-04-15T10:37:53;9.90;72.60
22006;DHT22;11167;46.988;15.470;2023-04-15T10:39:54;10.00;72.60
22006;DHT22;11167;46.988;15.470;2023-04-15T10:42:08;10.00;72.60
22006;DHT22;11167;46.988;15.470;2023-04-15T10:44:10;10.00;72.50
22006;DHT22;11167;46.988;15.470;2023-04-15T10:46:11;10.00;72.70
22006;DHT22;11167;46.988;15.470;2023-04-15T10:48:14;10.00;72.60
22006;DHT22;11167;46.988;15.470;2023-04-15T10:50:18;10.00;72.50
22006;DHT22;11167;46.988;15.470;2023-04-15T10:52:24;10.00;72.60
22006;DHT22;11167;46.988;15.470;2023-04-15T10:56:34;10.10;72.80
22006;DHT22;11167;46.988;15.470;2023-04-15T10:58:42;10.10;72.60
22006;DHT22;11167;46.988;15.470;2023-04-15T11:00:48;10.10;72.60
22006;DHT22;11167;46.988;15.470;2023-04-15T11:02:59;10.10;72.60
22006;DHT22;11167;46.988;15.470;2023-04-15T11:05:01;10.10;72.70
22006;DHT22;11167;46.988;15.470;2023-04-15T11:07:05;10.10;72.70
22006;DHT22;11167;46.988;15.470;2023-04-15T11:09:06;10.20;72.80
22006;DHT22;11167;46.988;15.470;2023-04-15T11:11:09;10.20;72.70
22006;DHT22;11167;46.988;15.470;2023-04-15T11:17:38;10.20;72.70
22006;DHT22;11167;46.988;15.470;2023-04-15T11:19:39;10.30;72.80
22006;DHT22;11167;46.988;15.470;2023-04-15T11:21:40;10.30;72.80
22006;DHT22;11167;46.988;15.470;2023-04-15T11:23:42;10.30;72.70
22006;DHT22;11167;46.988;15.470;2023-04-15T11:25:47;10.30;72.80
22006;DHT22;11167;46.988;15.470;2023-04-15T11:27:48;10.30;72.70
22006;DHT22;11167;46.988;15.470;2023-04-15T11:29:50;10.30;72.70
22006;DHT22;11167;46.988;15.470;2023-04-15T11:31:52;10.30;72.80
22006;DHT22;11167;46.988;15.470;2023-04-15T11:33:58;10.40;73.50
22006;DHT22;11167;46.988;15.470;2023-04-15T11:36:00;10.40;72.70
22006;DHT22;11167;46.988;15.470;2023-04-15T11:38:10;10.40;72.70
22006;DHT22;11167;46.988;15.470;2023-04-15T11:40:14;10.40;72.70
22006;DHT22;11167;46.988;15.470;2023-04-15T11:42:17;10.40;72.70
22006;DHT22;11167;46.988;15.470;2023-04-15T11:44:18;10.40;72.70
22006;DHT22;11167;46.988;15.470;2023-04-15T11:46:20;10.40;72.70
22006;DHT22;11167;46.988;15.470;2023-04-15T11:48:28;10.50;72.70
22006;DHT22;11167;46.988;15.470;2023-04-15T11:50:29;10.50;72.70
22006;DHT22;11167;46.988;15.470;2023-04-15T11:52:30;10.50;72.90
22006;DHT22;11167;46.988;15.470;2023-04-15T11:54:32;10.50;72.80
22006;DHT22;11167;46.988;15.470;2023-04-15T11:56:33;10.50;72.70
22006;DHT22;11167;46.988;15.470;2023-04-15T11:58:35;10.60;72.70
22006;DHT22;11167;46.988;15.470;2023-04-15T12:00:39;10.50;72.80
22006;DHT22;11167;46.988;15.470;2023-04-15T12:02:40;10.60;72.70
22006;DHT22;11167;46.988;15.470;2023-04-15T12:04:47;10.60;72.80
22006;DHT22;11167;46.988;15.470;2023-04-15T12:06:48;10.60;72.80
22006;DHT22;11167;46.988;15.470;2023-04-15T12:09:03;10.60;72.80
22006;DHT22;11167;46.988;15.470;2023-04-15T12:11:04;10.60;72.70
22006;DHT22;11167;46.988;15.470;2023-04-15T12:13:06;10.70;72.90
22006;DHT22;11167;46.988;15.470;2023-04-15T12:15:08;10.70;72.90
22006;DHT22;11167;46.988;15.470;2023-04-15T12:17:12;10.70;72.90
22006;DHT22;11167;46.988;15.470;2023-04-15T12:19:37;10.80;73.10
22006;DHT22;11167;46.988;15.470;2023-04-15T12:21:40;10.70;72.90
22006;DHT22;11167;46.988;15.470;2023-04-15T12:25:52;10.70;72.90
22006;DHT22;11167;46.988;15.470;2023-04-15T12:27:53;10.80;73.00
22006;DHT22;11167;46.988;15.470;2023-04-15T12:30:03;10.80;72.90
22006;DHT22;11167;46.988;15.470;2023-04-15T12:32:09;10.80;72.90
22006;DHT22;11167;46.988;15.470;2023-04-15T12:34:13;10.80;72.90
22006;DHT22;11167;46.988;15.470;2023-04-15T12:36:15;10.80;73.00
22006;DHT22;11167;46.988;15.470;2023-04-15T12:38:16;10.80;73.80
22006;DHT22;11167;46.988;15.470;2023-04-15T12:40:18;10.90;73.10
22006;DHT22;11167;46.988;15.470;2023-04-15T12:42:20;10.90;73.10
22006;DHT22;11167;46.988;15.470;2023-04-15T12:44:23;10.90;73.00
22006;DHT22;11167;46.988;15.470;2023-04-15T12:46:24;10.90;73.00
22006;DHT22;11167;46.988;15.470;2023-04-15T12:48:26;10.90;73.10
22006;DHT22;11167;46.988;15.470;2023-04-15T12:50:29;10.90;73.10
22006;DHT22;11167;46.988;15.470;2023-04-15T12:52:30;11.00;73.10
22006;DHT22;11167;46.988;15.470;2023-04-15T12:54:32;11.00;73.10
22006;DHT22;11167;46.988;15.470;2023-04-15T12:56:33;11.00;73.10
22006;DHT22;11167;46.988;15.470;2023-04-15T12:58:34;11.00;73.10